createdAt,value
2023-03-21T00:00:44.353Z,52.02
2023-03-21T00:03:11.476Z,51.92
2023-03-21T00:05:41.346Z,52.08
2023-03-21T00:08:08.742Z,52.00
2023-03-21T00:10:42.686Z,52.44
2023-03-21T00:13:13.397Z,53.22
2023-03-21T00:16:03.777Z,54.02
2023-03-21T00:18:32.593Z,54.13
2023-03-21T00:21:25.638Z,52.96
2023-03-21T00:23:47.821Z,53.06
2023-03-21T00:26:15.499Z,53.37
2023-03-21T00:28:43.916Z,53.41
2023-03-21T00:31:11.479Z,54.30
2023-03-21T00:33:41.748Z,53.44
2023-03-21T00:36:10.665Z,53.47
2023-03-21T00:38:38.209Z,52.84
2023-03-21T00:41:21.024Z,53.11
2023-03-21T00:43:55.782Z,53.29
2023-03-21T00:46:25.192Z,53.85
2023-03-21T00:48:52.355Z,54.14
2023-03-21T00:51:26.366Z,54.44
2023-03-21T00:53:55.005Z,54.67
2023-03-21T00:56:22.437Z,54.81
2023-03-21T00:58:51.299Z,55.09
2023-03-21T01:01:19.645Z,55.51
2023-03-21T01:03:51.091Z,55.08
2023-03-21T01:06:19.658Z,55.46
2023-03-21T01:08:53.221Z,55.57
2023-03-21T01:11:24.064Z,56.01
2023-03-21T01:13:56.009Z,56.23
2023-03-21T01:16:30.470Z,55.79
2023-03-21T01:18:57.490Z,55.54
2023-03-21T01:21:24.528Z,56.39
2023-03-21T01:23:51.893Z,57.17
2023-03-21T01:26:19.003Z,57.24
2023-03-21T01:28:46.454Z,56.92
2023-03-21T01:31:14.926Z,56.96
2023-03-21T01:33:43.661Z,57.17
2023-03-21T01:36:16.104Z,56.37
2023-03-21T01:38:43.651Z,57.10
2023-03-21T01:41:20.477Z,57.11
2023-03-21T01:43:48.777Z,56.82
2023-03-21T01:46:44.070Z,57.63
2023-03-21T01:49:46.058Z,57.48
2023-03-21T01:52:35.994Z,57.89
2023-03-21T01:55:07.177Z,57.26
2023-03-21T01:57:58.501Z,57.48
2023-03-21T02:00:36.602Z,57.73
2023-03-21T02:03:29.483Z,57.41
2023-03-21T02:06:13.917Z,57.00
2023-03-21T02:08:43.933Z,57.41
2023-03-21T02:11:14.663Z,56.70
2023-03-21T02:13:43.588Z,57.45
2023-03-21T02:16:18.150Z,56.99
2023-03-21T02:18:53.594Z,57.49
2023-03-21T02:21:50.874Z,58.25
2023-03-21T02:25:06.045Z,58.83
2023-03-21T02:27:37.664Z,58.27
2023-03-21T02:30:51.157Z,58.76
2023-03-21T02:33:41.861Z,58.71
2023-03-21T02:36:18.297Z,59.15
2023-03-21T02:38:53.123Z,58.37
2023-03-21T02:41:25.419Z,58.36
2023-03-21T02:43:56.490Z,58.46
2023-03-21T02:46:33.468Z,57.32
2023-03-21T02:49:10.652Z,57.68
2023-03-21T02:51:38.162Z,57.41
2023-03-21T02:54:28.124Z,57.17
2023-03-21T02:56:59.530Z,57.28
2023-03-21T02:59:27.826Z,56.91
2023-03-21T03:01:57.358Z,56.36
2023-03-21T03:04:28.973Z,56.41
2023-03-21T03:07:17.901Z,56.15
2023-03-21T03:10:08.584Z,57.40
2023-03-21T03:12:41.729Z,56.43
2023-03-21T03:15:17.863Z,56.90
2023-03-21T03:17:51.700Z,57.72
2023-03-21T03:20:39.871Z,57.29
2023-03-21T03:23:14.750Z,56.97
2023-03-21T03:25:44.654Z,57.40
2023-03-21T03:28:16.397Z,56.97
2023-03-21T03:30:57.445Z,57.60
2023-03-21T03:33:30.996Z,58.64
2023-03-21T03:36:05.485Z,58.46
2023-03-21T03:38:36.146Z,57.78
2023-03-21T03:41:09.724Z,58.42
2023-03-21T03:43:48.640Z,59.06
2023-03-21T03:46:18.650Z,59.67
2023-03-21T03:48:49.457Z,60.73
2023-03-21T03:51:21.670Z,60.11
2023-03-21T03:54:13.402Z,60.86
2023-03-21T03:56:42.662Z,61.23
2023-03-21T03:59:09.704Z,60.36
2023-03-21T04:01:50.682Z,61.07
2023-03-21T04:04:18.145Z,61.15
2023-03-21T04:06:51.744Z,61.98
2023-03-21T04:09:28.946Z,61.62
2023-03-21T04:12:06.177Z,62.39
2023-03-21T04:14:44.070Z,61.75
2023-03-21T04:17:12.976Z,61.91
2023-03-21T04:19:40.059Z,60.76
2023-03-21T04:22:07.367Z,62.02
2023-03-21T04:24:39.545Z,62.01
2023-03-21T04:27:08.040Z,62.69
2023-03-21T04:29:56.079Z,62.83
2023-03-21T04:32:39.640Z,61.81
2023-03-21T04:35:13.916Z,60.62
2023-03-21T04:37:41.672Z,61.08
2023-03-21T04:40:17.890Z,60.59
2023-03-21T04:42:47.823Z,60.31
2023-03-21T04:45:15.992Z,60.61
2023-03-21T04:47:45.494Z,61.98
2023-03-21T04:50:13.784Z,61.34
2023-03-21T04:52:40.814Z,60.79
2023-03-21T04:55:10.382Z,61.38
2023-03-21T04:57:39.149Z,61.19
2023-03-21T05:00:14.561Z,61.19
2023-03-21T05:02:41.660Z,61.80
2023-03-21T05:05:11.392Z,61.00
2023-03-21T05:07:38.712Z,60.94
2023-03-21T05:10:07.535Z,61.87
2023-03-21T05:12:34.894Z,61.91
2023-03-21T05:15:01.862Z,61.50
2023-03-21T05:17:30.692Z,61.56
2023-03-21T05:19:58.663Z,61.03
2023-03-21T05:22:26.871Z,62.00
2023-03-21T05:24:55.390Z,61.38
2023-03-21T05:27:35.190Z,62.28
2023-03-21T05:30:09.526Z,61.75
2023-03-21T05:32:38.387Z,62.70
2023-03-21T05:35:09.784Z,62.17
2023-03-21T05:37:38.468Z,62.60
2023-03-21T05:40:08.351Z,63.10
2023-03-21T05:42:37.426Z,62.83
2023-03-21T05:45:13.336Z,62.71
2023-03-21T05:47:41.806Z,60.96
2023-03-21T05:50:11.313Z,61.47
2023-03-21T05:52:40.380Z,61.82
2023-03-21T05:55:12.386Z,61.61
2023-03-21T05:57:41.007Z,61.17
2023-03-21T06:00:22.268Z,60.89
2023-03-21T06:03:10.398Z,59.89
2023-03-21T06:06:07.867Z,58.93
2023-03-21T06:08:43.230Z,58.71
2023-03-21T06:11:20.375Z,58.48
2023-03-21T06:13:48.001Z,57.15
2023-03-21T06:16:14.988Z,56.49
2023-03-21T06:18:43.308Z,56.65
2023-03-21T06:21:33.218Z,56.32
2023-03-21T06:24:00.552Z,56.23
2023-03-21T06:26:28.781Z,56.47
2023-03-21T06:28:56.364Z,56.96
2023-03-21T06:31:25.222Z,56.09
2023-03-21T06:33:55.962Z,55.36
2023-03-21T06:36:22.805Z,54.36
2023-03-21T06:38:49.771Z,53.84
2023-03-21T06:41:17.149Z,53.81
2023-03-21T06:43:51.796Z,53.16
2023-03-21T06:46:21.194Z,53.12
2023-03-21T06:48:48.789Z,52.77
2023-03-21T06:51:17.177Z,52.77
2023-03-21T06:53:57.566Z,51.38
2023-03-21T06:56:31.277Z,50.42
2023-03-21T06:58:58.318Z,49.92
2023-03-21T07:02:00.363Z,47.98
2023-03-21T07:04:28.485Z,48.73
2023-03-21T07:06:58.110Z,47.28
2023-03-21T07:09:28.247Z,46.98
2023-03-21T07:11:58.952Z,47.05
2023-03-21T07:14:35.768Z,46.34
2023-03-21T07:17:02.755Z,45.66
2023-03-21T07:19:30.021Z,45.09
2023-03-21T07:21:58.704Z,44.85
2023-03-21T07:24:26.256Z,44.39
2023-03-21T07:26:53.315Z,44.68
2023-03-21T07:29:22.751Z,45.14
2023-03-21T07:31:49.813Z,44.43
2023-03-21T07:34:17.782Z,44.63
2023-03-21T07:36:45.523Z,44.25
2023-03-21T07:39:14.503Z,43.86
2023-03-21T07:41:41.558Z,42.91
2023-03-21T07:44:23.384Z,42.44
2023-03-21T07:46:59.747Z,43.61
2023-03-21T07:49:27.001Z,42.99
2023-03-21T07:51:53.934Z,42.49
2023-03-21T07:54:23.204Z,42.84
2023-03-21T07:56:50.518Z,42.28
2023-03-21T07:59:17.633Z,42.43
2023-03-21T08:01:44.496Z,42.85
2023-03-21T08:04:11.533Z,41.64
2023-03-21T08:06:38.620Z,41.75
2023-03-21T08:09:05.616Z,42.04
2023-03-21T08:11:34.205Z,41.45
2023-03-21T08:14:01.592Z,40.67
2023-03-21T08:16:29.779Z,40.87
2023-03-21T08:18:56.526Z,39.98
2023-03-21T08:21:23.440Z,40.39
2023-03-21T08:23:50.404Z,40.29
2023-03-21T08:26:18.549Z,40.18
2023-03-21T08:28:46.939Z,40.68
2023-03-21T08:31:14.625Z,39.70
2023-03-21T08:33:41.596Z,39.07
2023-03-21T08:36:10.021Z,39.12
2023-03-21T08:38:37.139Z,38.35
2023-03-21T08:41:04.218Z,38.85
2023-03-21T08:43:31.193Z,38.55
2023-03-21T08:45:59.617Z,38.03
2023-03-21T08:48:26.685Z,37.98
2023-03-21T08:50:53.699Z,37.74
2023-03-21T08:53:20.684Z,37.83
2023-03-21T08:55:49.427Z,37.74
2023-03-21T08:58:17.417Z,37.09
2023-03-21T09:00:44.342Z,38.53
2023-03-21T09:03:12.802Z,38.85
2023-03-21T09:05:40.131Z,38.16
2023-03-21T09:08:07.216Z,38.38
2023-03-21T09:10:34.231Z,37.99
2023-03-21T09:13:01.448Z,37.87
2023-03-21T09:15:29.619Z,37.45
2023-03-21T09:17:58.678Z,36.37
2023-03-21T09:20:31.342Z,36.11
2023-03-21T09:22:59.274Z,37.17
2023-03-21T09:25:29.599Z,36.83
2023-03-21T09:27:58.149Z,36.44
2023-03-21T09:30:26.504Z,34.81
2023-03-21T09:32:55.781Z,35.54
2023-03-21T09:35:24.382Z,36.15
2023-03-21T09:37:53.299Z,36.22
2023-03-21T09:40:21.670Z,35.68
2023-03-21T09:42:57.004Z,35.88
2023-03-21T09:45:30.266Z,34.52
2023-03-21T09:47:58.423Z,35.36
2023-03-21T09:50:31.709Z,34.66
2023-03-21T09:53:01.816Z,34.76
2023-03-21T09:55:34.751Z,33.66
2023-03-21T09:58:05.860Z,34.54
2023-03-21T10:00:37.415Z,33.11
2023-03-21T10:03:07.537Z,32.27
2023-03-21T10:05:35.726Z,33.12
2023-03-21T10:08:07.347Z,33.13
2023-03-21T10:10:37.832Z,31.77
2023-03-21T10:13:06.148Z,32.02
2023-03-21T10:15:33.256Z,31.60
2023-03-21T10:18:01.846Z,31.51
2023-03-21T10:20:31.651Z,29.57
2023-03-21T10:23:01.120Z,28.40
2023-03-21T10:25:32.786Z,30.17
2023-03-21T10:28:01.407Z,29.13
2023-03-21T10:30:37.842Z,27.73
2023-03-21T10:33:09.745Z,27.83
2023-03-21T10:35:37.811Z,27.77
2023-03-21T10:38:06.363Z,28.18
2023-03-21T10:40:35.578Z,27.23
2023-03-21T10:43:21.975Z,28.49
2023-03-21T10:45:49.294Z,29.12
2023-03-21T10:48:17.656Z,28.75
2023-03-21T10:50:47.809Z,27.72
2023-03-21T10:53:18.702Z,27.00
2023-03-21T10:55:49.298Z,28.90
2023-03-21T10:58:19.037Z,28.47
2023-03-21T11:00:46.685Z,29.01
2023-03-21T11:03:21.856Z,28.52
2023-03-21T11:05:53.200Z,28.56
2023-03-21T11:08:20.419Z,29.63
2023-03-21T11:11:01.307Z,29.99
2023-03-21T11:13:34.444Z,29.42
2023-03-21T11:16:06.883Z,28.52
2023-03-21T11:18:33.816Z,28.27
2023-03-21T11:21:04.303Z,28.14
2023-03-21T11:23:33.575Z,27.47
2023-03-21T11:26:02.912Z,29.07
2023-03-21T11:28:35.807Z,29.28
2023-03-21T11:31:03.652Z,28.44
2023-03-21T11:33:32.098Z,28.40
2023-03-21T11:36:04.490Z,28.41
2023-03-21T11:38:34.425Z,28.52
2023-03-21T11:41:03.187Z,27.09
2023-03-21T11:43:32.059Z,28.19
2023-03-21T11:46:01.238Z,27.96
2023-03-21T11:48:28.920Z,25.98
2023-03-21T11:50:59.540Z,27.76
2023-03-21T11:53:35.519Z,27.77
2023-03-21T11:56:16.418Z,26.81
2023-03-21T11:58:52.492Z,27.76
2023-03-21T12:01:26.503Z,28.11
2023-03-21T12:04:02.100Z,28.10
2023-03-21T12:06:34.307Z,27.32
2023-03-21T12:09:08.606Z,26.90
2023-03-21T12:11:39.338Z,27.43
2023-03-21T12:14:13.808Z,27.41
2023-03-21T12:16:52.369Z,27.57
2023-03-21T12:19:38.057Z,27.75
2023-03-21T12:22:11.300Z,26.98
2023-03-21T12:24:42.649Z,28.05
2023-03-21T12:27:16.675Z,27.81
2023-03-21T12:29:57.054Z,27.81
2023-03-21T12:32:35.727Z,27.77
2023-03-21T12:35:16.702Z,27.86
2023-03-21T12:37:53.804Z,27.47
2023-03-21T12:40:31.196Z,27.51
2023-03-21T12:43:23.717Z,27.70
2023-03-21T12:45:54.046Z,27.94
2023-03-21T12:48:26.243Z,27.09
2023-03-21T12:50:54.997Z,28.38
2023-03-21T12:53:35.739Z,27.90
2023-03-21T12:56:05.991Z,28.37
2023-03-21T12:58:41.048Z,28.99
2023-03-21T13:01:09.861Z,28.12
2023-03-21T13:03:42.148Z,28.31
2023-03-21T13:06:11.202Z,29.26
2023-03-21T13:08:44.550Z,28.16
2023-03-21T13:11:14.545Z,29.09
2023-03-21T13:13:46.543Z,28.06
2023-03-21T13:16:15.581Z,29.42
2023-03-21T13:18:53.925Z,43.26
2023-03-21T13:21:28.925Z,36.26
2023-03-21T13:24:00.562Z,36.68
2023-03-21T13:26:38.112Z,35.16
2023-03-21T13:29:15.057Z,34.13
2023-03-21T13:31:52.016Z,33.51
2023-03-21T13:34:22.603Z,30.71
2023-03-21T13:36:51.375Z,29.09
2023-03-21T13:39:20.280Z,28.92
2023-03-21T13:41:49.202Z,28.69
2023-03-21T13:44:33.872Z,29.96
2023-03-21T13:47:02.208Z,29.15
2023-03-21T13:49:32.491Z,29.18
2023-03-21T13:52:00.667Z,28.79
2023-03-21T13:54:51.134Z,29.26
2023-03-21T13:57:38.211Z,31.03
2023-03-21T14:00:19.950Z,29.50
2023-03-21T14:02:54.425Z,30.02
2023-03-21T14:05:23.116Z,31.02
2023-03-21T14:07:54.776Z,31.72
2023-03-21T14:10:28.759Z,32.08
2023-03-21T14:12:55.746Z,32.55
2023-03-21T14:15:26.064Z,33.03
2023-03-21T14:17:54.676Z,33.63
2023-03-21T14:20:23.296Z,32.75
2023-03-21T14:22:50.587Z,34.34
2023-03-21T14:25:19.207Z,33.53
2023-03-21T14:27:49.126Z,33.57
2023-03-21T14:30:22.124Z,34.55
2023-03-21T14:32:50.821Z,34.39
2023-03-21T14:35:18.009Z,35.18
2023-03-21T14:37:47.680Z,35.44
2023-03-21T14:40:21.572Z,36.42
2023-03-21T14:42:50.427Z,37.80
2023-03-21T14:45:20.873Z,38.62
2023-03-21T14:48:01.400Z,39.52
2023-03-21T14:50:36.770Z,39.73
2023-03-21T14:53:03.945Z,41.31
2023-03-21T14:55:31.952Z,40.46
2023-03-21T14:57:58.873Z,41.77
2023-03-21T15:00:27.521Z,41.93
2023-03-21T15:02:55.463Z,42.81
2023-03-21T15:05:27.258Z,42.51
2023-03-21T15:07:56.596Z,43.21
2023-03-21T15:10:25.097Z,43.45
2023-03-21T15:12:54.075Z,45.55
2023-03-21T15:15:23.869Z,44.88
2023-03-21T15:17:53.827Z,45.93
2023-03-21T15:20:24.896Z,47.63
2023-03-21T15:22:54.755Z,48.41
2023-03-21T15:25:24.383Z,50.66
2023-03-21T15:27:51.673Z,49.73
2023-03-21T15:30:20.759Z,51.46
2023-03-21T15:32:48.621Z,50.83
2023-03-21T15:35:17.785Z,51.29
2023-03-21T15:37:53.306Z,52.64
2023-03-21T15:40:22.868Z,55.06
2023-03-21T15:42:49.777Z,56.05
2023-03-21T15:45:21.506Z,58.01
2023-03-21T15:47:54.176Z,59.19
2023-03-21T15:50:27.877Z,57.77
2023-03-21T15:52:59.031Z,58.38
2023-03-21T15:55:29.314Z,58.60
2023-03-21T15:58:01.092Z,56.33
2023-03-21T16:00:34.285Z,56.16
2023-03-21T16:03:04.993Z,59.44
2023-03-21T16:05:33.254Z,61.67
2023-03-21T16:08:04.523Z,62.27
2023-03-21T16:10:34.443Z,62.41
2023-03-21T16:13:01.452Z,62.08
2023-03-21T16:15:28.707Z,64.92
2023-03-21T16:17:57.619Z,65.37
2023-03-21T16:20:26.192Z,66.50
2023-03-21T16:22:53.547Z,65.53
2023-03-21T16:25:22.039Z,63.21
2023-03-21T16:27:49.240Z,64.83
2023-03-21T16:30:19.982Z,64.89
2023-03-21T16:32:47.014Z,66.85
2023-03-21T16:35:14.538Z,67.59
2023-03-21T16:37:41.679Z,66.16
2023-03-21T16:40:17.617Z,66.99
2023-03-21T16:42:46.042Z,67.55
2023-03-21T16:45:12.975Z,68.32
2023-03-21T16:47:40.287Z,67.62
2023-03-21T16:50:22.242Z,68.15
2023-03-21T16:52:49.432Z,68.41
2023-03-21T16:55:16.780Z,69.26
2023-03-21T16:57:45.687Z,69.14
2023-03-21T17:00:16.543Z,68.83
2023-03-21T17:02:43.510Z,70.15
2023-03-21T17:05:11.688Z,69.09
2023-03-21T17:07:38.884Z,69.42
2023-03-21T17:10:16.445Z,70.09
2023-03-21T17:12:44.906Z,70.29
2023-03-21T17:15:12.274Z,70.08
2023-03-21T17:17:39.538Z,69.86
2023-03-21T17:20:22.424Z,70.43
2023-03-21T17:22:49.729Z,70.89
2023-03-21T17:25:17.731Z,70.28
2023-03-21T17:27:46.677Z,70.51
2023-03-21T17:30:25.439Z,70.49
2023-03-21T17:32:53.184Z,69.72
2023-03-21T17:35:21.002Z,69.78
2023-03-21T17:37:50.599Z,70.36
2023-03-21T17:40:20.643Z,71.06
2023-03-21T17:42:49.430Z,69.11
2023-03-21T17:45:17.261Z,69.44
2023-03-21T17:47:44.336Z,71.44
2023-03-21T17:50:16.732Z,70.84
2023-03-21T17:52:43.796Z,69.80
2023-03-21T17:55:11.146Z,70.36
2023-03-21T17:57:38.322Z,70.06
2023-03-21T18:00:12.347Z,70.72
2023-03-21T18:02:40.014Z,70.21
2023-03-21T18:05:08.668Z,71.10
2023-03-21T18:08:05.925Z,71.97
2023-03-21T18:10:25.259Z,71.40
2023-03-21T18:12:56.414Z,71.86
2023-03-21T18:15:30.228Z,72.73
2023-03-21T18:17:58.165Z,73.03
2023-03-21T18:20:44.568Z,72.36
2023-03-21T18:23:14.702Z,73.28
2023-03-21T18:25:41.907Z,72.69
2023-03-21T18:28:11.920Z,73.65
2023-03-21T18:31:05.186Z,74.27
2023-03-21T18:33:28.520Z,73.75
2023-03-21T18:35:59.772Z,74.21
2023-03-21T18:38:27.568Z,74.35
2023-03-21T18:40:54.973Z,74.32
2023-03-21T18:46:10.713Z,73.96
2023-03-21T18:48:37.465Z,74.29
2023-03-21T18:51:05.212Z,74.34
2023-03-21T18:53:32.665Z,74.49
2023-03-21T18:55:59.617Z,74.97
2023-03-21T18:58:26.571Z,75.25
2023-03-21T19:00:54.064Z,74.86
2023-03-21T19:03:35.411Z,74.49
2023-03-21T19:06:05.009Z,74.64
2023-03-21T19:08:34.064Z,74.54
2023-03-21T19:11:04.350Z,74.22
2023-03-21T19:13:33.429Z,74.52
2023-03-21T19:16:02.673Z,74.92
2023-03-21T19:21:19.352Z,74.88
2023-03-21T19:26:34.088Z,74.98
2023-03-21T19:29:01.390Z,74.97
2023-03-21T19:31:28.461Z,74.23
2023-03-21T19:33:57.051Z,74.24
2023-03-21T19:36:23.876Z,74.85
2023-03-21T19:38:51.043Z,75.08
2023-03-21T19:41:18.823Z,74.44
2023-03-21T19:43:54.186Z,75.79
2023-03-21T19:46:24.838Z,75.26
2023-03-21T19:48:56.102Z,76.31
2023-03-21T19:51:29.354Z,75.35
2023-03-21T19:53:57.147Z,75.57
2023-03-21T19:56:27.091Z,76.06
2023-03-21T19:58:54.701Z,76.03
2023-03-21T20:01:21.949Z,76.08
2023-03-21T20:03:49.030Z,76.65
2023-03-21T20:06:16.787Z,76.46
2023-03-21T20:11:32.162Z,76.54
2023-03-21T20:13:59.930Z,77.06
2023-03-21T20:16:34.232Z,77.02
2023-03-21T20:19:02.336Z,77.32
2023-03-21T20:21:43.410Z,76.90
2023-03-21T20:24:16.848Z,77.03
2023-03-21T20:26:45.184Z,77.08
2023-03-21T20:30:05.743Z,77.72
2023-03-21T20:31:59.842Z,76.85
2023-03-21T20:34:28.415Z,77.29
2023-03-21T20:36:56.051Z,77.25
2023-03-21T20:39:24.742Z,77.62
2023-03-21T20:41:54.730Z,76.91
2023-03-21T20:44:57.366Z,76.74
2023-03-21T20:47:09.010Z,76.46
2023-03-21T20:49:36.011Z,77.03
2023-03-21T20:54:57.447Z,77.99
2023-03-21T20:57:27.589Z,77.44
2023-03-21T20:59:55.196Z,77.21
2023-03-21T21:02:22.554Z,76.66
2023-03-21T21:05:21.596Z,76.59
2023-03-21T21:07:36.968Z,77.47
2023-03-21T21:10:10.084Z,77.72
2023-03-21T21:12:39.359Z,78.10
2023-03-21T21:15:08.334Z,77.50
2023-03-21T21:20:23.042Z,77.57
2023-03-21T21:23:00.232Z,77.93
2023-03-21T21:25:30.668Z,77.95
2023-03-21T21:27:58.070Z,78.54
2023-03-21T21:30:25.363Z,78.83
2023-03-21T21:32:52.346Z,78.72
2023-03-21T21:35:20.681Z,80.57
2023-03-21T21:37:47.693Z,81.06
2023-03-21T21:40:18.975Z,79.85
2023-03-21T21:42:47.357Z,78.41
2023-03-21T21:45:14.369Z,77.14
2023-03-21T21:47:43.600Z,75.12
2023-03-21T21:50:11.148Z,75.10
2023-03-21T21:52:38.269Z,74.63
2023-03-21T21:55:06.600Z,75.45
2023-03-21T21:57:34.843Z,75.72
2023-03-21T22:00:07.038Z,76.22
2023-03-21T22:02:41.027Z,75.55
2023-03-21T22:05:09.125Z,76.53
2023-03-21T22:07:37.524Z,76.09
2023-03-21T22:10:05.627Z,77.27
2023-03-21T22:12:32.616Z,76.83
2023-03-21T22:14:59.674Z,76.80
2023-03-21T22:17:28.107Z,77.51
2023-03-21T22:20:05.118Z,76.25
2023-03-21T22:22:33.275Z,75.91
2023-03-21T22:25:00.210Z,74.65
2023-03-21T22:27:27.256Z,75.01
2023-03-21T22:29:54.160Z,74.47
2023-03-21T22:32:21.382Z,74.34
2023-03-21T22:34:49.806Z,74.13
2023-03-21T22:37:16.663Z,74.88
2023-03-21T22:39:43.526Z,74.54
2023-03-21T22:42:10.578Z,74.67
2023-03-21T22:44:37.745Z,74.07
2023-03-21T22:47:07.197Z,75.30
2023-03-21T22:49:34.292Z,75.41
2023-03-21T22:52:03.436Z,75.72
2023-03-21T22:54:30.554Z,76.04
2023-03-21T22:56:57.545Z,76.71
2023-03-21T22:59:24.547Z,77.09
2023-03-21T23:01:51.615Z,76.95
2023-03-21T23:04:19.320Z,77.45
2023-03-21T23:06:46.456Z,77.32
2023-03-21T23:09:15.040Z,77.71
2023-03-21T23:11:43.117Z,77.38
2023-03-21T23:14:10.200Z,78.04
2023-03-21T23:16:38.531Z,78.43
2023-03-21T23:19:06.210Z,78.26
2023-03-21T23:21:34.636Z,78.50
2023-03-21T23:24:01.604Z,77.96
2023-03-21T23:26:30.048Z,78.51
2023-03-21T23:28:56.994Z,77.88
2023-03-21T23:31:25.678Z,77.78
2023-03-21T23:33:53.357Z,78.42
2023-03-21T23:36:21.275Z,78.71
2023-03-21T23:38:48.517Z,78.83
2023-03-21T23:41:17.578Z,78.92
2023-03-21T23:43:46.780Z,78.78
2023-03-21T23:46:14.925Z,78.53
2023-03-21T23:48:42.546Z,78.40
2023-03-21T23:51:09.563Z,78.14
2023-03-21T23:53:37.603Z,78.24
2023-03-21T23:56:10.816Z,77.83
2023-03-21T23:58:37.825Z,77.88
